Southern Utah University
, Cedar City
Last Weather Update:12/30/2011 11:00:00 PM
Date
ETo
ETc
Rain
Irrigation
Req
Temp
Max
Temp
Min
Temp
Avg
Avg RH
Avg Wind
Avg Solar
inches
inches
incehs
inches
F
F
F
%
%
watts/m2
11/01/2011 0.06" 0.00" 0.01" -0.01" 55.3° 26.5° 40.4° 58.1% 4.8 MPH 118.9w/m2
11/02/2011 0.06" 0.00" 0.02" -0.02" 44.6° 22.6° 31.4° 63.4% 3.3 MPH 172.0w/m2
11/03/2011 0.11" 0.00" 0.00" 0.00" 58.6° 22.6° 41.7° 37.1% 5.5 MPH 161.5w/m2
11/04/2011 0.13" 0.00" 0.00" 0.00" 54.3° 29.9° 46.7° 41.4% 12.1 MPH 144.0w/m2
11/05/2011 0.04" 0.00" 0.33" -0.26" 38.1° 27.9° 31.9° 76.5% 3.3 MPH 117.6w/m2
11/06/2011 0.04" 0.00" 0.00" 0.00" 39.4° 22.7° 30.7° 77.1% 2.5 MPH 102.1w/m2
11/07/2011 0.01" 0.00" 0.16" -0.13" 32.0° 24.5° 29.8° 97.1% 3.1 MPH 39.7w/m2
11/08/2011 0.05" 0.00" 0.04" -0.03" 40.1° 17.2° 28.0° 77.8% 1.7 MPH 159.3w/m2
11/09/2011 0.05" 0.00" 0.00" 0.00" 44.0° 18.2° 29.2° 66.4% 2.1 MPH 158.9w/m2
11/10/2011 0.07" 0.00" 0.00" 0.00" 54.2° 23.0° 36.7° 45.2% 2.8 MPH 144.5w/m2
11/11/2011 0.07" 0.00" 0.00" 0.00" 52.3° 32.3° 42.3° 39.1% 4.4 MPH 104.3w/m2
11/12/2011 0.09" 0.00" 0.00" 0.00" 50.5° 33.6° 44.2° 42.7% 7.8 MPH 126.7w/m2
11/13/2011 0.05" 0.00" 0.00" 0.00" 52.1° 33.4° 42.6° 63.4% 5.0 MPH 88.4w/m2
11/14/2011 0.07" 0.00" 0.00" 0.00" 52.3° 30.2° 40.3° 65.9% 4.3 MPH 147.1w/m2
11/15/2011 0.07" 0.00" 0.00" 0.00" 55.1° 30.3° 40.8° 54.8% 3.0 MPH 133.3w/m2
11/16/2011 0.06" 0.00" 0.00" 0.00" 49.4° 23.3° 34.9° 56.7% 1.9 MPH 138.6w/m2
11/17/2011 0.09" 0.00" 0.00" 0.00" 54.9° 29.2° 41.2° 42.0% 4.6 MPH 139.4w/m2
11/18/2011 0.12" 0.00" 0.00" 0.00" 57.5° 30.7° 45.5° 40.1% 10.4 MPH 142.5w/m2
11/19/2011 0.06" 0.00" 0.00" 0.00" 49.0° 34.6° 41.3° 58.9% 6.5 MPH 118.9w/m2
11/20/2011 0.07" 0.00" 0.08" -0.06" 49.1° 37.9° 43.7° 55.9% 7.0 MPH 97.5w/m2
11/21/2011 0.04" 0.00" 0.19" -0.15" 46.7° 32.4° 38.9° 84.1% 2.7 MPH 95.8w/m2
11/22/2011 0.06" 0.00" 0.00" 0.00" 54.6° 27.7° 39.1° 67.4% 2.7 MPH 134.5w/m2
11/23/2011 0.10" 0.00" 0.00" 0.00" 62.5° 34.2° 48.6° 36.3% 5.4 MPH 125.2w/m2
11/24/2011 0.09" 0.00" 0.00" 0.00" 53.8° 34.3° 46.5° 43.6% 6.1 MPH 120.6w/m2
11/25/2011 0.06" 0.00" 0.00" 0.00" 53.4° 29.5° 39.5° 57.1% 2.0 MPH 133.3w/m2
11/26/2011 0.05" 0.00" 0.00" 0.00" 46.5° 22.2° 33.4° 52.3% 2.5 MPH 132.2w/m2
11/27/2011 0.06" 0.00" 0.00" 0.00" 57.8° 24.3° 38.1° 44.9% 2.3 MPH 131.8w/m2
11/28/2011 0.06" 0.00" 0.00" 0.00" 60.8° 35.0° 45.4° 34.7% 2.2 MPH 103.0w/m2
11/29/2011 0.06" 0.00" 0.00" 0.00" 56.3° 28.1° 40.1° 47.2% 2.5 MPH 130.0w/m2
11/30/2011 0.09" 0.00" 0.00" 0.00" 60.7° 27.7° 41.5° 47.6% 6.8 MPH 122.3w/m2
Totals: 2.06" 0.00" 0.83" -0.66" 62.5° 17.2° 39.2° 55.8% 4.4 MPH 126.1w/m2